sensor_id;sensor_type;location;lat;lon;timestamp;temperature;humidity
32348;DHT22;18821;44.800;10.326;2024-01-06T00:01:51;6.00;99.90
32348;DHT22;18821;44.800;10.326;2024-01-06T00:04:16;5.90;99.90
32348;DHT22;18821;44.800;10.326;2024-01-06T00:06:42;5.90;99.90
32348;DHT22;18821;44.800;10.326;2024-01-06T00:09:08;5.90;99.90
32348;DHT22;18821;44.800;10.326;2024-01-06T00:11:34;6.00;99.90
32348;DHT22;18821;44.800;10.326;2024-01-06T00:14:00;5.90;99.90
32348;DHT22;18821;44.800;10.326;2024-01-06T00:16:26;6.00;99.90
32348;DHT22;18821;44.800;10.326;2024-01-06T00:18:52;5.90;99.90
32348;DHT22;18821;44.800;10.326;2024-01-06T00:21:18;6.00;99.90
32348;DHT22;18821;44.800;10.326;2024-01-06T00:23:44;5.90;99.90
32348;DHT22;18821;44.800;10.326;2024-01-06T00:26:10;6.00;99.90
32348;DHT22;18821;44.800;10.326;2024-01-06T00:28:38;6.00;99.90
32348;DHT22;18821;44.800;10.326;2024-01-06T00:31:05;6.10;99.90
32348;DHT22;18821;44.800;10.326;2024-01-06T00:33:31;6.20;99.90
32348;DHT22;18821;44.800;10.326;2024-01-06T00:35:57;6.20;99.90
32348;DHT22;18821;44.800;10.326;2024-01-06T00:38:23;6.30;99.90
32348;DHT22;18821;44.800;10.326;2024-01-06T00:40:49;6.20;99.90
32348;DHT22;18821;44.800;10.326;2024-01-06T00:43:15;6.20;99.90
32348;DHT22;18821;44.800;10.326;2024-01-06T00:45:41;6.20;99.90
32348;DHT22;18821;44.800;10.326;2024-01-06T00:48:07;6.20;99.90
32348;DHT22;18821;44.800;10.326;2024-01-06T00:50:33;6.20;99.90
32348;DHT22;18821;44.800;10.326;2024-01-06T00:52:59;6.30;99.90
32348;DHT22;18821;44.800;10.326;2024-01-06T00:55:25;6.20;99.90
32348;DHT22;18821;44.800;10.326;2024-01-06T00:57:51;6.30;99.90
32348;DHT22;18821;44.800;10.326;2024-01-06T01:00:17;6.20;99.90
32348;DHT22;18821;44.800;10.326;2024-01-06T01:02:43;6.20;99.90
32348;DHT22;18821;44.800;10.326;2024-01-06T01:05:09;6.20;99.90
32348;DHT22;18821;44.800;10.326;2024-01-06T01:07:35;6.20;99.90
32348;DHT22;18821;44.800;10.326;2024-01-06T01:10:01;6.20;99.90
32348;DHT22;18821;44.800;10.326;2024-01-06T01:12:28;6.10;99.90
32348;DHT22;18821;44.800;10.326;2024-01-06T01:14:53;6.20;99.90
32348;DHT22;18821;44.800;10.326;2024-01-06T01:17:19;6.20;99.90
32348;DHT22;18821;44.800;10.326;2024-01-06T01:19:46;6.20;99.90
32348;DHT22;18821;44.800;10.326;2024-01-06T01:22:12;6.20;99.90
32348;DHT22;18821;44.800;10.326;2024-01-06T01:24:38;6.20;99.90
32348;DHT22;18821;44.800;10.326;2024-01-06T01:27:05;6.20;99.90
32348;DHT22;18821;44.800;10.326;2024-01-06T01:29:31;6.20;99.90
32348;DHT22;18821;44.800;10.326;2024-01-06T01:31:57;6.20;99.90
32348;DHT22;18821;44.800;10.326;2024-01-06T01:34:23;6.20;99.90
32348;DHT22;18821;44.800;10.326;2024-01-06T01:36:49;6.20;99.90
32348;DHT22;18821;44.800;10.326;2024-01-06T01:39:14;6.20;99.90
32348;DHT22;18821;44.800;10.326;2024-01-06T01:41:41;6.20;99.90
32348;DHT22;18821;44.800;10.326;2024-01-06T01:44:07;6.30;99.90
32348;DHT22;18821;44.800;10.326;2024-01-06T01:46:33;6.30;99.90
32348;DHT22;18821;44.800;10.326;2024-01-06T01:49:00;6.30;99.90
32348;DHT22;18821;44.800;10.326;2024-01-06T01:51:29;6.30;99.90
32348;DHT22;18821;44.800;10.326;2024-01-06T01:54:00;6.30;99.90
32348;DHT22;18821;44.800;10.326;2024-01-06T01:56:26;6.30;99.90
32348;DHT22;18821;44.800;10.326;2024-01-06T01:58:53;6.20;99.90
32348;DHT22;18821;44.800;10.326;2024-01-06T02:01:19;6.20;99.90
32348;DHT22;18821;44.800;10.326;2024-01-06T02:03:45;6.20;99.90
32348;DHT22;18821;44.800;10.326;2024-01-06T02:06:12;6.20;99.90
32348;DHT22;18821;44.800;10.326;2024-01-06T02:08:38;6.20;99.90
32348;DHT22;18821;44.800;10.326;2024-01-06T02:11:04;6.20;99.90
32348;DHT22;18821;44.800;10.326;2024-01-06T02:13:34;6.20;99.90
32348;DHT22;18821;44.800;10.326;2024-01-06T02:16:04;6.20;99.90
32348;DHT22;18821;44.800;10.326;2024-01-06T02:18:31;6.20;99.90
32348;DHT22;18821;44.800;10.326;2024-01-06T02:20:58;6.20;99.90
32348;DHT22;18821;44.800;10.326;2024-01-06T02:23:25;6.20;99.90
32348;DHT22;18821;44.800;10.326;2024-01-06T02:25:51;6.10;99.90
32348;DHT22;18821;44.800;10.326;2024-01-06T02:28:17;6.20;99.90
32348;DHT22;18821;44.800;10.326;2024-01-06T02:30:43;6.20;99.90
32348;DHT22;18821;44.800;10.326;2024-01-06T02:33:09;6.10;99.90
32348;DHT22;18821;44.800;10.326;2024-01-06T02:35:35;6.10;99.90
32348;DHT22;18821;44.800;10.326;2024-01-06T02:38:01;6.10;99.90
32348;DHT22;18821;44.800;10.326;2024-01-06T02:40:28;6.10;99.90
32348;DHT22;18821;44.800;10.326;2024-01-06T02:42:54;6.10;99.90
32348;DHT22;18821;44.800;10.326;2024-01-06T02:45:20;6.10;99.90
32348;DHT22;18821;44.800;10.326;2024-01-06T02:47:46;6.00;99.90
32348;DHT22;18821;44.800;10.326;2024-01-06T02:50:12;6.00;99.90
32348;DHT22;18821;44.800;10.326;2024-01-06T02:52:38;6.00;99.90
32348;DHT22;18821;44.800;10.326;2024-01-06T02:55:04;6.00;99.90
32348;DHT22;18821;44.800;10.326;2024-01-06T02:57:31;6.00;99.90
32348;DHT22;18821;44.800;10.326;2024-01-06T02:59:57;6.00;99.90
32348;DHT22;18821;44.800;10.326;2024-01-06T03:02:23;5.90;99.90
32348;DHT22;18821;44.800;10.326;2024-01-06T03:04:49;6.00;99.90
32348;DHT22;18821;44.800;10.326;2024-01-06T03:07:16;5.90;99.90
32348;DHT22;18821;44.800;10.326;2024-01-06T03:09:41;6.00;99.90
32348;DHT22;18821;44.800;10.326;2024-01-06T03:12:07;6.00;99.90
32348;DHT22;18821;44.800;10.326;2024-01-06T03:14:35;6.00;99.90
32348;DHT22;18821;44.800;10.326;2024-01-06T03:17:01;6.00;99.90
32348;DHT22;18821;44.800;10.326;2024-01-06T03:19:29;6.00;99.90
32348;DHT22;18821;44.800;10.326;2024-01-06T03:21:55;6.00;99.90
32348;DHT22;18821;44.800;10.326;2024-01-06T03:24:22;5.90;99.90
32348;DHT22;18821;44.800;10.326;2024-01-06T03:26:48;6.00;99.90
32348;DHT22;18821;44.800;10.326;2024-01-06T03:29:14;6.00;99.90
32348;DHT22;18821;44.800;10.326;2024-01-06T03:31:46;6.00;99.90
32348;DHT22;18821;44.800;10.326;2024-01-06T03:34:13;6.00;99.90
32348;DHT22;18821;44.800;10.326;2024-01-06T03:36:39;6.00;99.90
32348;DHT22;18821;44.800;10.326;2024-01-06T03:39:05;6.00;99.90
32348;DHT22;18821;44.800;10.326;2024-01-06T03:41:31;6.10;99.90
32348;DHT22;18821;44.800;10.326;2024-01-06T03:43:58;6.10;99.90
32348;DHT22;18821;44.800;10.326;2024-01-06T03:46:24;6.00;99.90
32348;DHT22;18821;44.800;10.326;2024-01-06T03:48:49;6.00;99.90
32348;DHT22;18821;44.800;10.326;2024-01-06T03:51:15;6.00;99.90
32348;DHT22;18821;44.800;10.326;2024-01-06T03:53:41;6.00;99.90
32348;DHT22;18821;44.800;10.326;2024-01-06T03:56:07;6.00;99.90
32348;DHT22;18821;44.800;10.326;2024-01-06T03:58:34;6.00;99.90
32348;DHT22;18821;44.800;10.326;2024-01-06T04:01:00;6.00;99.90
32348;DHT22;18821;44.800;10.326;2024-01-06T04:03:26;6.00;99.90
32348;DHT22;18821;44.800;10.326;2024-01-06T04:05:52;5.90;99.90
32348;DHT22;18821;44.800;10.326;2024-01-06T04:08:19;6.00;99.90
32348;DHT22;18821;44.800;10.326;2024-01-06T04:10:45;6.00;99.90
32348;DHT22;18821;44.800;10.326;2024-01-06T04:13:11;6.00;99.90
32348;DHT22;18821;44.800;10.326;2024-01-06T04:15:37;5.90;99.90
32348;DHT22;18821;44.800;10.326;2024-01-06T04:18:05;6.00;99.90
32348;DHT22;18821;44.800;10.326;2024-01-06T04:20:32;5.90;99.90
32348;DHT22;18821;44.800;10.326;2024-01-06T04:22:58;5.90;99.90
32348;DHT22;18821;44.800;10.326;2024-01-06T04:25:24;6.00;99.90
32348;DHT22;18821;44.800;10.326;2024-01-06T04:27:50;5.90;99.90
32348;DHT22;18821;44.800;10.326;2024-01-06T04:30:16;5.90;99.90
32348;DHT22;18821;44.800;10.326;2024-01-06T04:32:43;5.90;99.90
32348;DHT22;18821;44.800;10.326;2024-01-06T04:35:10;5.90;99.90
32348;DHT22;18821;44.800;10.326;2024-01-06T04:37:35;5.90;99.90
32348;DHT22;18821;44.800;10.326;2024-01-06T04:40:02;5.90;99.90
32348;DHT22;18821;44.800;10.326;2024-01-06T04:42:29;5.90;99.90
32348;DHT22;18821;44.800;10.326;2024-01-06T04:44:55;5.90;99.90
32348;DHT22;18821;44.800;10.326;2024-01-06T04:47:21;5.90;99.90
32348;DHT22;18821;44.800;10.326;2024-01-06T04:49:47;5.90;99.90
32348;DHT22;18821;44.800;10.326;2024-01-06T04:52:13;5.80;99.90
32348;DHT22;18821;44.800;10.326;2024-01-06T04:54:39;5.90;99.90
32348;DHT22;18821;44.800;10.326;2024-01-06T04:57:05;5.90;99.90
32348;DHT22;18821;44.800;10.326;2024-01-06T04:59:31;5.90;99.90
32348;DHT22;18821;44.800;10.326;2024-01-06T05:01:57;5.90;99.90
32348;DHT22;18821;44.800;10.326;2024-01-06T05:04:24;6.00;99.90
32348;DHT22;18821;44.800;10.326;2024-01-06T05:06:53;6.00;99.90
32348;DHT22;18821;44.800;10.326;2024-01-06T05:09:20;6.00;99.90
32348;DHT22;18821;44.800;10.326;2024-01-06T05:11:46;6.10;99.90
32348;DHT22;18821;44.800;10.326;2024-01-06T05:14:12;6.00;99.90
32348;DHT22;18821;44.800;10.326;2024-01-06T05:16:38;6.10;99.90
32348;DHT22;18821;44.800;10.326;2024-01-06T05:19:04;6.10;99.90
32348;DHT22;18821;44.800;10.326;2024-01-06T05:21:30;6.10;99.90
32348;DHT22;18821;44.800;10.326;2024-01-06T05:23:56;6.10;99.90
32348;DHT22;18821;44.800;10.326;2024-01-06T05:26:22;6.10;99.90
32348;DHT22;18821;44.800;10.326;2024-01-06T05:28:48;6.20;99.90
32348;DHT22;18821;44.800;10.326;2024-01-06T05:31:14;6.20;99.90
32348;DHT22;18821;44.800;10.326;2024-01-06T05:33:40;6.20;99.90
32348;DHT22;18821;44.800;10.326;2024-01-06T05:36:06;6.20;99.90
32348;DHT22;18821;44.800;10.326;2024-01-06T05:38:32;6.30;99.90
32348;DHT22;18821;44.800;10.326;2024-01-06T05:40:58;6.30;99.90
32348;DHT22;18821;44.800;10.326;2024-01-06T05:43:24;6.30;99.90
32348;DHT22;18821;44.800;10.326;2024-01-06T05:45:50;6.40;99.90
32348;DHT22;18821;44.800;10.326;2024-01-06T05:48:16;6.30;99.90
32348;DHT22;18821;44.800;10.326;2024-01-06T05:50:42;6.30;99.90
32348;DHT22;18821;44.800;10.326;2024-01-06T05:53:08;6.30;99.90
32348;DHT22;18821;44.800;10.326;2024-01-06T05:55:34;6.30;99.90
32348;DHT22;18821;44.800;10.326;2024-01-06T05:58:01;6.30;99.90
32348;DHT22;18821;44.800;10.326;2024-01-06T06:00:28;6.40;99.90
32348;DHT22;18821;44.800;10.326;2024-01-06T06:02:53;6.40;99.90
32348;DHT22;18821;44.800;10.326;2024-01-06T06:05:19;6.40;99.90
32348;DHT22;18821;44.800;10.326;2024-01-06T06:07:46;6.40;99.90
32348;DHT22;18821;44.800;10.326;2024-01-06T06:10:12;6.30;99.90
32348;DHT22;18821;44.800;10.326;2024-01-06T06:12:38;6.30;99.90
32348;DHT22;18821;44.800;10.326;2024-01-06T06:15:05;6.40;99.90
32348;DHT22;18821;44.800;10.326;2024-01-06T06:17:35;6.40;99.90
32348;DHT22;18821;44.800;10.326;2024-01-06T06:20:01;6.50;99.90
32348;DHT22;18821;44.800;10.326;2024-01-06T06:22:27;6.40;99.90
32348;DHT22;18821;44.800;10.326;2024-01-06T06:24:56;6.40;99.90
32348;DHT22;18821;44.800;10.326;2024-01-06T06:27:23;6.40;99.90
32348;DHT22;18821;44.800;10.326;2024-01-06T06:29:49;6.40;99.90
32348;DHT22;18821;44.800;10.326;2024-01-06T06:32:15;6.50;99.90
32348;DHT22;18821;44.800;10.326;2024-01-06T06:34:42;6.50;99.90
32348;DHT22;18821;44.800;10.326;2024-01-06T06:37:08;6.60;99.90
32348;DHT22;18821;44.800;10.326;2024-01-06T06:39:35;6.60;99.90
32348;DHT22;18821;44.800;10.326;2024-01-06T06:42:02;6.60;99.90
32348;DHT22;18821;44.800;10.326;2024-01-06T06:44:28;6.60;99.90
32348;DHT22;18821;44.800;10.326;2024-01-06T06:46:56;6.60;99.90
32348;DHT22;18821;44.800;10.326;2024-01-06T06:49:22;6.50;99.90
32348;DHT22;18821;44.800;10.326;2024-01-06T06:51:48;6.50;99.90
32348;DHT22;18821;44.800;10.326;2024-01-06T06:54:15;6.60;99.90
32348;DHT22;18821;44.800;10.326;2024-01-06T06:56:44;6.60;99.90
32348;DHT22;18821;44.800;10.326;2024-01-06T06:59:10;6.40;99.90
32348;DHT22;18821;44.800;10.326;2024-01-06T07:01:37;6.30;99.90
32348;DHT22;18821;44.800;10.326;2024-01-06T07:04:03;6.30;99.90
32348;DHT22;18821;44.800;10.326;2024-01-06T07:06:29;6.30;99.90
32348;DHT22;18821;44.800;10.326;2024-01-06T07:08:56;6.30;99.90
32348;DHT22;18821;44.800;10.326;2024-01-06T07:11:22;6.40;99.90
32348;DHT22;18821;44.800;10.326;2024-01-06T07:13:49;6.30;99.90
32348;DHT22;18821;44.800;10.326;2024-01-06T07:16:15;6.40;99.90
32348;DHT22;18821;44.800;10.326;2024-01-06T07:18:41;6.40;99.90
32348;DHT22;18821;44.800;10.326;2024-01-06T07:21:07;6.40;99.90
32348;DHT22;18821;44.800;10.326;2024-01-06T07:23:33;6.30;99.90
32348;DHT22;18821;44.800;10.326;2024-01-06T07:25:59;6.30;99.90
32348;DHT22;18821;44.800;10.326;2024-01-06T07:28:26;6.30;99.90
32348;DHT22;18821;44.800;10.326;2024-01-06T07:30:52;6.30;99.90
32348;DHT22;18821;44.800;10.326;2024-01-06T07:33:18;6.20;99.90
32348;DHT22;18821;44.800;10.326;2024-01-06T07:35:44;6.30;99.90
32348;DHT22;18821;44.800;10.326;2024-01-06T07:38:10;6.20;99.90
32348;DHT22;18821;44.800;10.326;2024-01-06T07:40:36;6.30;99.90
32348;DHT22;18821;44.800;10.326;2024-01-06T07:43:02;6.30;99.90
32348;DHT22;18821;44.800;10.326;2024-01-06T07:45:28;6.30;99.90
32348;DHT22;18821;44.800;10.326;2024-01-06T07:47:54;6.20;99.90
32348;DHT22;18821;44.800;10.326;2024-01-06T07:50:20;6.20;99.90
32348;DHT22;18821;44.800;10.326;2024-01-06T07:52:46;6.20;99.90
32348;DHT22;18821;44.800;10.326;2024-01-06T07:55:12;6.20;99.90
32348;DHT22;18821;44.800;10.326;2024-01-06T07:57:38;6.20;99.90
32348;DHT22;18821;44.800;10.326;2024-01-06T08:00:04;6.30;99.90
32348;DHT22;18821;44.800;10.326;2024-01-06T08:02:38;6.30;99.90
32348;DHT22;18821;44.800;10.326;2024-01-06T08:05:04;6.30;99.90
32348;DHT22;18821;44.800;10.326;2024-01-06T08:07:29;6.40;99.90
32348;DHT22;18821;44.800;10.326;2024-01-06T08:09:55;6.30;99.90
32348;DHT22;18821;44.800;10.326;2024-01-06T08:12:21;6.30;99.90
32348;DHT22;18821;44.800;10.326;2024-01-06T08:14:47;6.20;99.90
32348;DHT22;18821;44.800;10.326;2024-01-06T08:17:13;6.20;99.90
32348;DHT22;18821;44.800;10.326;2024-01-06T08:19:39;6.20;99.90
32348;DHT22;18821;44.800;10.326;2024-01-06T08:22:05;6.20;99.90
32348;DHT22;18821;44.800;10.326;2024-01-06T08:24:31;6.20;99.90
32348;DHT22;18821;44.800;10.326;2024-01-06T08:26:57;6.10;99.90
32348;DHT22;18821;44.800;10.326;2024-01-06T08:29:23;6.20;99.90
32348;DHT22;18821;44.800;10.326;2024-01-06T08:31:49;6.20;99.90
32348;DHT22;18821;44.800;10.326;2024-01-06T08:34:18;6.20;99.90
32348;DHT22;18821;44.800;10.326;2024-01-06T08:36:44;6.10;99.90
32348;DHT22;18821;44.800;10.326;2024-01-06T08:39:11;6.20;99.90
32348;DHT22;18821;44.800;10.326;2024-01-06T08:41:37;6.20;99.90
32348;DHT22;18821;44.800;10.326;2024-01-06T08:44:03;6.30;99.90
32348;DHT22;18821;44.800;10.326;2024-01-06T08:46:29;6.30;99.90
32348;DHT22;18821;44.800;10.326;2024-01-06T08:48:56;6.20;99.90
32348;DHT22;18821;44.800;10.326;2024-01-06T08:51:22;6.10;99.90
32348;DHT22;18821;44.800;10.326;2024-01-06T08:53:49;6.10;99.90
32348;DHT22;18821;44.800;10.326;2024-01-06T08:56:15;6.10;99.90
32348;DHT22;18821;44.800;10.326;2024-01-06T08:58:43;6.20;99.90
32348;DHT22;18821;44.800;10.326;2024-01-06T09:01:09;6.20;99.90
32348;DHT22;18821;44.800;10.326;2024-01-06T09:03:36;6.10;99.90
32348;DHT22;18821;44.800;10.326;2024-01-06T09:06:02;6.20;99.90
32348;DHT22;18821;44.800;10.326;2024-01-06T09:08:28;6.20;99.90
32348;DHT22;18821;44.800;10.326;2024-01-06T09:10:55;6.30;99.90
32348;DHT22;18821;44.800;10.326;2024-01-06T09:13:24;6.30;99.90
32348;DHT22;18821;44.800;10.326;2024-01-06T09:15:51;6.20;99.90
32348;DHT22;18821;44.800;10.326;2024-01-06T09:18:17;6.30;99.90
32348;DHT22;18821;44.800;10.326;2024-01-06T09:20:43;6.30;99.90
32348;DHT22;18821;44.800;10.326;2024-01-06T09:23:09;6.30;99.90
32348;DHT22;18821;44.800;10.326;2024-01-06T09:25:38;6.30;99.90
32348;DHT22;18821;44.800;10.326;2024-01-06T09:28:05;6.40;99.90
32348;DHT22;18821;44.800;10.326;2024-01-06T09:30:32;6.30;99.90
32348;DHT22;18821;44.800;10.326;2024-01-06T09:32:58;6.30;99.90
32348;DHT22;18821;44.800;10.326;2024-01-06T09:35:24;6.30;99.90
32348;DHT22;18821;44.800;10.326;2024-01-06T09:37:50;6.30;99.90
32348;DHT22;18821;44.800;10.326;2024-01-06T09:40:22;6.30;99.90
32348;DHT22;18821;44.800;10.326;2024-01-06T09:42:50;6.30;99.90
32348;DHT22;18821;44.800;10.326;2024-01-06T09:45:16;6.30;99.90
32348;DHT22;18821;44.800;10.326;2024-01-06T09:47:42;6.30;99.90
32348;DHT22;18821;44.800;10.326;2024-01-06T09:50:10;6.30;99.90
32348;DHT22;18821;44.800;10.326;2024-01-06T09:52:41;6.40;99.90
32348;DHT22;18821;44.800;10.326;2024-01-06T09:55:12;6.40;99.90
32348;DHT22;18821;44.800;10.326;2024-01-06T09:57:38;6.40;99.90
32348;DHT22;18821;44.800;10.326;2024-01-06T10:00:05;6.40;99.90
32348;DHT22;18821;44.800;10.326;2024-01-06T10:02:37;6.40;99.90
32348;DHT22;18821;44.800;10.326;2024-01-06T10:05:03;6.40;99.90
32348;DHT22;18821;44.800;10.326;2024-01-06T10:07:29;6.50;99.90
32348;DHT22;18821;44.800;10.326;2024-01-06T10:09:55;6.40;99.90
32348;DHT22;18821;44.800;10.326;2024-01-06T10:12:25;6.40;99.90
32348;DHT22;18821;44.800;10.326;2024-01-06T10:14:52;6.40;99.90
32348;DHT22;18821;44.800;10.326;2024-01-06T10:17:18;6.40;99.90
32348;DHT22;18821;44.800;10.326;2024-01-06T10:19:45;6.40;99.90
32348;DHT22;18821;44.800;10.326;2024-01-06T10:22:13;6.40;99.90
32348;DHT22;18821;44.800;10.326;2024-01-06T10:24:39;6.40;99.90
32348;DHT22;18821;44.800;10.326;2024-01-06T10:27:05;6.40;99.90
32348;DHT22;18821;44.800;10.326;2024-01-06T10:29:32;6.40;99.90
32348;DHT22;18821;44.800;10.326;2024-01-06T10:31:58;6.40;99.90
32348;DHT22;18821;44.800;10.326;2024-01-06T10:34:25;6.50;99.90
32348;DHT22;18821;44.800;10.326;2024-01-06T10:36:55;6.50;99.90
32348;DHT22;18821;44.800;10.326;2024-01-06T10:39:22;6.50;99.90
32348;DHT22;18821;44.800;10.326;2024-01-06T10:41:49;6.50;99.90
32348;DHT22;18821;44.800;10.326;2024-01-06T10:44:18;6.50;99.90
32348;DHT22;18821;44.800;10.326;2024-01-06T10:46:45;6.60;99.90
32348;DHT22;18821;44.800;10.326;2024-01-06T10:49:12;6.50;99.90
32348;DHT22;18821;44.800;10.326;2024-01-06T10:51:39;6.50;99.90
32348;DHT22;18821;44.800;10.326;2024-01-06T10:54:05;6.50;99.90
32348;DHT22;18821;44.800;10.326;2024-01-06T10:56:36;6.50;99.90
32348;DHT22;18821;44.800;10.326;2024-01-06T10:59:03;6.50;99.90
32348;DHT22;18821;44.800;10.326;2024-01-06T11:01:29;6.60;99.90
32348;DHT22;18821;44.800;10.326;2024-01-06T11:03:56;6.60;99.90
32348;DHT22;18821;44.800;10.326;2024-01-06T11:06:22;6.60;99.90
32348;DHT22;18821;44.800;10.326;2024-01-06T11:09:02;6.60;99.90
32348;DHT22;18821;44.800;10.326;2024-01-06T11:11:30;6.60;99.90
32348;DHT22;18821;44.800;10.326;2024-01-06T11:14:20;6.60;99.90
32348;DHT22;18821;44.800;10.326;2024-01-06T11:16:46;6.60;99.90
32348;DHT22;18821;44.800;10.326;2024-01-06T11:24:49;6.60;99.90
32348;DHT22;18821;44.800;10.326;2024-01-06T11:27:34;6.50;99.90
32348;DHT22;18821;44.800;10.326;2024-01-06T11:30:03;6.50;99.90
32348;DHT22;18821;44.800;10.326;2024-01-06T11:32:33;6.60;99.90
32348;DHT22;18821;44.800;10.326;2024-01-06T11:35:14;6.50;99.90
32348;DHT22;18821;44.800;10.326;2024-01-06T11:40:21;6.50;99.90
32348;DHT22;18821;44.800;10.326;2024-01-06T11:43:03;6.60;99.90
32348;DHT22;18821;44.800;10.326;2024-01-06T11:45:31;6.60;99.90
32348;DHT22;18821;44.800;10.326;2024-01-06T11:48:00;6.50;99.90
32348;DHT22;18821;44.800;10.326;2024-01-06T11:50:27;6.60;99.90
32348;DHT22;18821;44.800;10.326;2024-01-06T11:52:55;6.60;99.90
32348;DHT22;18821;44.800;10.326;2024-01-06T11:55:21;6.50;99.90
32348;DHT22;18821;44.800;10.326;2024-01-06T11:57:47;6.60;99.90
32348;DHT22;18821;44.800;10.326;2024-01-06T12:00:16;6.60;99.90
32348;DHT22;18821;44.800;10.326;2024-01-06T12:02:42;6.60;99.90
32348;DHT22;18821;44.800;10.326;2024-01-06T12:05:18;6.60;99.90
32348;DHT22;18821;44.800;10.326;2024-01-06T12:07:54;6.60;99.90
32348;DHT22;18821;44.800;10.326;2024-01-06T12:10:21;6.70;99.90
32348;DHT22;18821;44.800;10.326;2024-01-06T12:13:02;6.70;99.90
32348;DHT22;18821;44.800;10.326;2024-01-06T12:15:30;6.60;99.90
32348;DHT22;18821;44.800;10.326;2024-01-06T12:17:56;6.60;99.90
32348;DHT22;18821;44.800;10.326;2024-01-06T12:20:24;6.60;99.90
32348;DHT22;18821;44.800;10.326;2024-01-06T12:22:52;6.70;99.90
32348;DHT22;18821;44.800;10.326;2024-01-06T12:25:20;6.70;99.90
32348;DHT22;18821;44.800;10.326;2024-01-06T12:27:47;6.80;99.90
32348;DHT22;18821;44.800;10.326;2024-01-06T12:30:15;6.80;99.90
32348;DHT22;18821;44.800;10.326;2024-01-06T12:32:45;6.70;99.90
32348;DHT22;18821;44.800;10.326;2024-01-06T12:35:13;6.60;99.90
32348;DHT22;18821;44.800;10.326;2024-01-06T12:37:41;6.70;99.90
32348;DHT22;18821;44.800;10.326;2024-01-06T12:40:12;6.70;99.90
32348;DHT22;18821;44.800;10.326;2024-01-06T12:42:38;6.70;99.90
32348;DHT22;18821;44.800;10.326;2024-01-06T12:45:06;6.70;99.90
32348;DHT22;18821;44.800;10.326;2024-01-06T12:47:33;6.70;99.90
32348;DHT22;18821;44.800;10.326;2024-01-06T12:49:59;6.80;99.90
32348;DHT22;18821;44.800;10.326;2024-01-06T12:52:28;6.90;99.90
32348;DHT22;18821;44.800;10.326;2024-01-06T12:54:54;6.90;99.90
32348;DHT22;18821;44.800;10.326;2024-01-06T12:57:19;6.90;99.90
32348;DHT22;18821;44.800;10.326;2024-01-06T12:59:45;6.80;99.90
32348;DHT22;18821;44.800;10.326;2024-01-06T13:02:11;6.90;99.90
32348;DHT22;18821;44.800;10.326;2024-01-06T13:04:37;6.80;99.90
32348;DHT22;18821;44.800;10.326;2024-01-06T13:07:03;6.80;99.90
32348;DHT22;18821;44.800;10.326;2024-01-06T13:09:29;6.80;99.90
32348;DHT22;18821;44.800;10.326;2024-01-06T13:11:55;6.90;99.90
32348;DHT22;18821;44.800;10.326;2024-01-06T13:14:29;7.00;99.90
32348;DHT22;18821;44.800;10.326;2024-01-06T13:16:55;7.00;99.90
32348;DHT22;18821;44.800;10.326;2024-01-06T13:19:21;7.00;99.90
32348;DHT22;18821;44.800;10.326;2024-01-06T13:21:47;7.10;99.90
32348;DHT22;18821;44.800;10.326;2024-01-06T13:24:13;7.10;99.90
32348;DHT22;18821;44.800;10.326;2024-01-06T13:26:39;7.10;99.90
32348;DHT22;18821;44.800;10.326;2024-01-06T13:29:05;7.00;99.90
32348;DHT22;18821;44.800;10.326;2024-01-06T13:31:31;7.00;99.90
32348;DHT22;18821;44.800;10.326;2024-01-06T13:33:58;7.00;99.90
32348;DHT22;18821;44.800;10.326;2024-01-06T13:36:24;7.00;99.90
32348;DHT22;18821;44.800;10.326;2024-01-06T13:38:50;7.10;99.90
32348;DHT22;18821;44.800;10.326;2024-01-06T13:41:16;7.10;99.90
32348;DHT22;18821;44.800;10.326;2024-01-06T13:43:42;7.10;99.90
32348;DHT22;18821;44.800;10.326;2024-01-06T13:46:10;7.20;99.90
32348;DHT22;18821;44.800;10.326;2024-01-06T13:48:36;7.10;99.90
32348;DHT22;18821;44.800;10.326;2024-01-06T13:51:02;7.10;99.90
32348;DHT22;18821;44.800;10.326;2024-01-06T13:53:28;7.20;99.90
32348;DHT22;18821;44.800;10.326;2024-01-06T13:55:54;7.20;99.90
32348;DHT22;18821;44.800;10.326;2024-01-06T13:58:20;7.20;99.90
32348;DHT22;18821;44.800;10.326;2024-01-06T14:00:46;7.10;99.90
32348;DHT22;18821;44.800;10.326;2024-01-06T14:03:14;7.20;99.90
32348;DHT22;18821;44.800;10.326;2024-01-06T14:05:40;7.20;99.90
32348;DHT22;18821;44.800;10.326;2024-01-06T14:08:06;7.20;99.90
32348;DHT22;18821;44.800;10.326;2024-01-06T14:10:32;7.10;99.90
32348;DHT22;18821;44.800;10.326;2024-01-06T14:12:58;7.10;99.90
32348;DHT22;18821;44.800;10.326;2024-01-06T14:15:24;7.20;99.90
32348;DHT22;18821;44.800;10.326;2024-01-06T14:17:52;7.20;99.90
32348;DHT22;18821;44.800;10.326;2024-01-06T14:20:19;7.10;99.90
32348;DHT22;18821;44.800;10.326;2024-01-06T14:22:45;7.10;99.90
32348;DHT22;18821;44.800;10.326;2024-01-06T14:25:15;7.10;99.90
32348;DHT22;18821;44.800;10.326;2024-01-06T14:27:45;7.10;99.90
32348;DHT22;18821;44.800;10.326;2024-01-06T14:30:11;7.20;99.90
32348;DHT22;18821;44.800;10.326;2024-01-06T14:32:37;7.30;99.90
32348;DHT22;18821;44.800;10.326;2024-01-06T14:35:07;7.20;99.90
32348;DHT22;18821;44.800;10.326;2024-01-06T14:37:37;7.20;99.90
32348;DHT22;18821;44.800;10.326;2024-01-06T14:40:07;7.10;99.90
32348;DHT22;18821;44.800;10.326;2024-01-06T14:42:33;7.10;99.90
32348;DHT22;18821;44.800;10.326;2024-01-06T14:45:02;7.20;99.90
32348;DHT22;18821;44.800;10.326;2024-01-06T14:47:29;7.20;99.90
32348;DHT22;18821;44.800;10.326;2024-01-06T14:49:55;7.30;99.90
32348;DHT22;18821;44.800;10.326;2024-01-06T14:52:21;7.30;99.90
32348;DHT22;18821;44.800;10.326;2024-01-06T14:54:47;7.30;99.90
32348;DHT22;18821;44.800;10.326;2024-01-06T14:57:14;7.20;99.90
32348;DHT22;18821;44.800;10.326;2024-01-06T14:59:41;7.20;99.90
32348;DHT22;18821;44.800;10.326;2024-01-06T15:02:07;7.30;99.90
32348;DHT22;18821;44.800;10.326;2024-01-06T15:04:33;7.30;99.90
32348;DHT22;18821;44.800;10.326;2024-01-06T15:07:08;7.30;99.90
32348;DHT22;18821;44.800;10.326;2024-01-06T15:09:41;7.40;99.90
32348;DHT22;18821;44.800;10.326;2024-01-06T15:12:07;7.40;99.90
32348;DHT22;18821;44.800;10.326;2024-01-06T15:14:33;7.40;99.90
32348;DHT22;18821;44.800;10.326;2024-01-06T15:16:59;7.30;99.90
32348;DHT22;18821;44.800;10.326;2024-01-06T15:19:25;7.30;99.90
32348;DHT22;18821;44.800;10.326;2024-01-06T15:21:57;7.20;99.90
32348;DHT22;18821;44.800;10.326;2024-01-06T15:24:22;7.30;99.90
32348;DHT22;18821;44.800;10.326;2024-01-06T15:26:50;7.30;99.90
32348;DHT22;18821;44.800;10.326;2024-01-06T15:29:17;7.30;99.90
32348;DHT22;18821;44.800;10.326;2024-01-06T15:31:43;7.30;99.90
32348;DHT22;18821;44.800;10.326;2024-01-06T15:34:09;7.20;99.90
32348;DHT22;18821;44.800;10.326;2024-01-06T15:36:35;7.20;99.90